Time;durP1;ratioP1;P1;durP2;ratioP2;P2;SDS_P1;SDS_P2;PMS_P1;PMS_P2;Temp;Humidity;BMP_temperature;BMP_pressure;BME280_temperature;BME280_humidity;BME280_pressure;Samples;Min_cycle;Max_cycle;Signal;HPM_P1;HPM_P2
2023/07/16 00:02:14;;;;;;;7.88;2.92;;;19.00;99.90;;;;;;5016328;28;20030;-77
2023/07/16 00:04:40;;;;;;;9.48;3.05;;;19.00;99.90;;;;;;5017960;28;20029;-76
2023/07/16 00:07:05;;;;;;;9.07;3.42;;;18.90;99.90;;;;;;5015787;28;20033;-76
2023/07/16 00:09:31;;;;;;;6.93;3.22;;;18.80;99.90;;;;;;5017833;28;20026;-76
2023/07/16 00:11:57;;;;;;;7.10;2.90;;;18.80;99.90;;;;;;5017743;28;20069;-77
2023/07/16 00:14:22;;;;;;;6.75;3.45;;;18.70;99.90;;;;;;5016025;28;20033;-76
2023/07/16 00:16:48;;;;;;;8.25;3.08;;;18.70;99.90;;;;;;5017821;28;20025;-77
2023/07/16 00:19:14;;;;;;;7.15;2.97;;;18.70;99.90;;;;;;5017602;28;20026;-77
2023/07/16 00:21:40;;;;;;;5.90;3.00;;;18.70;99.90;;;;;;5017607;28;20018;-77
2023/07/16 00:24:06;;;;;;;4.65;3.13;;;18.60;99.90;;;;;;5017394;28;20060;-77
2023/07/16 00:26:32;;;;;;;7.45;3.15;;;18.60;99.90;;;;;;5016250;28;20080;-77
2023/07/16 00:28:57;;;;;;;8.25;2.88;;;18.60;99.90;;;;;;5015815;28;20022;-77
2023/07/16 00:31:23;;;;;;;11.50;3.97;;;18.60;99.90;;;;;;5017500;28;20030;-76
2023/07/16 00:33:49;;;;;;;6.93;3.60;;;18.70;99.90;;;;;;5017453;28;20030;-77
2023/07/16 00:36:14;;;;;;;5.78;2.95;;;18.70;99.90;;;;;;5017410;28;20041;-76
2023/07/16 00:38:41;;;;;;;5.38;2.50;;;18.70;99.90;;;;;;5017379;28;20106;-76
2023/07/16 00:41:07;;;;;;;6.82;3.20;;;18.60;99.90;;;;;;5016045;28;20394;-78
2023/07/16 00:43:32;;;;;;;6.10;3.28;;;18.60;99.90;;;;;;5019535;28;20053;-76
2023/07/16 00:45:58;;;;;;;8.57;4.10;;;18.60;99.90;;;;;;5024446;28;20033;-77
2023/07/16 00:48:24;;;;;;;6.78;3.25;;;18.60;99.90;;;;;;5017214;28;20513;-77
2023/07/16 00:50:52;;;;;;;6.72;2.90;;;18.60;99.90;;;;;;5017397;28;20084;-75
2023/07/16 00:53:19;;;;;;;8.35;3.70;;;18.60;99.90;;;;;;5026674;28;20025;-76
2023/07/16 00:55:45;;;;;;;6.05;2.95;;;18.60;99.90;;;;;;5015891;28;20051;-75
2023/07/16 00:58:11;;;;;;;7.35;2.83;;;18.50;99.90;;;;;;5017270;28;20085;-76
2023/07/16 01:00:38;;;;;;;7.93;3.10;;;18.50;99.90;;;;;;5015757;28;20029;-76
2023/07/16 01:03:08;;;;;;;9.10;3.05;;;18.50;99.90;;;;;;5015862;28;20037;-77
2023/07/16 01:06:16;;;;;;;7.65;3.25;;;18.50;99.90;;;;;;5017155;28;20168;-76
2023/07/16 01:08:53;;;;;;;13.07;3.65;;;18.50;99.90;;;;;;5011493;28;20117;-76
2023/07/16 01:11:19;;;;;;;6.25;2.60;;;18.50;99.90;;;;;;5017369;28;20029;-77
2023/07/16 01:13:45;;;;;;;7.63;2.97;;;18.40;99.90;;;;;;5016578;28;20528;-77
2023/07/16 01:16:24;;;;;;;8.35;3.47;;;18.40;99.90;;;;;;5017178;28;20010;-76
2023/07/16 01:18:51;;;;;;;7.32;2.90;;;18.40;99.90;;;;;;5020082;28;20045;-76
2023/07/16 01:21:20;;;;;;;6.18;2.97;;;18.40;99.90;;;;;;5021172;28;20026;-77
2023/07/16 01:23:51;;;;;;;10.52;2.80;;;18.30;99.90;;;;;;5020645;28;20030;-75
2023/07/16 01:26:51;;;;;;;6.07;2.90;;;18.40;99.90;;;;;;5020544;28;20034;-75
2023/07/16 01:29:16;;;;;;;11.20;3.10;;;18.30;99.90;;;;;;5018918;28;20065;-75
2023/07/16 01:31:43;;;;;;;9.65;2.90;;;18.30;99.90;;;;;;5020410;28;20480;-76
2023/07/16 01:34:10;;;;;;;7.38;2.92;;;18.20;99.90;;;;;;5019098;28;20030;-75
2023/07/16 01:36:37;;;;;;;6.32;3.30;;;18.20;99.90;;;;;;5020318;28;20030;-76
2023/07/16 01:39:03;;;;;;;7.97;2.78;;;18.20;99.90;;;;;;5020525;28;20540;-76
2023/07/16 01:41:29;;;;;;;10.82;3.30;;;18.20;99.90;;;;;;5019004;28;20034;-77
2023/07/16 01:43:55;;;;;;;10.65;3.38;;;18.20;99.90;;;;;;5026910;28;20059;-76
2023/07/16 01:46:20;;;;;;;8.02;2.90;;;18.20;99.90;;;;;;5023714;28;20022;-75
2023/07/16 01:48:47;;;;;;;4.75;2.35;;;18.20;99.90;;;;;;5020408;28;20029;-76
2023/07/16 01:51:14;;;;;;;7.60;2.95;;;18.20;99.90;;;;;;5020040;28;20065;-76
2023/07/16 01:53:40;;;;;;;9.55;2.70;;;18.10;99.90;;;;;;5029711;28;20116;-75
2023/07/16 01:56:06;;;;;;;4.90;2.50;;;18.10;99.90;;;;;;5019947;28;20084;-76
2023/07/16 01:58:31;;;;;;;11.05;3.10;;;18.10;99.90;;;;;;5018476;28;20030;-75
2023/07/16 02:00:57;;;;;;;9.35;3.28;;;18.10;99.90;;;;;;5018650;28;20441;-76
2023/07/16 02:03:23;;;;;;;8.07;3.33;;;18.10;99.90;;;;;;5020079;28;20421;-76
2023/07/16 02:05:49;;;;;;;7.30;3.25;;;18.10;99.90;;;;;;5019824;28;20068;-75
2023/07/16 02:08:14;;;;;;;4.57;2.70;;;18.10;99.90;;;;;;5020098;28;20079;-76
2023/07/16 02:10:40;;;;;;;4.78;2.78;;;18.00;99.90;;;;;;5019714;28;20026;-76
2023/07/16 02:13:06;;;;;;;8.93;2.88;;;18.10;99.90;;;;;;5019476;28;20053;-75
2023/07/16 02:15:31;;;;;;;7.35;2.40;;;18.00;99.90;;;;;;5019587;28;20061;-75
2023/07/16 02:17:57;;;;;;;8.32;3.30;;;18.00;99.90;;;;;;5018429;28;20030;-75
2023/07/16 02:20:23;;;;;;;8.05;2.80;;;18.00;99.90;;;;;;5018246;28;20494;-76
2023/07/16 02:22:48;;;;;;;8.77;3.17;;;18.00;99.90;;;;;;5019604;28;20022;-76
2023/07/16 02:25:14;;;;;;;5.00;2.50;;;18.00;99.90;;;;;;5018069;28;20052;-76
2023/07/16 02:27:40;;;;;;;7.60;2.75;;;18.00;99.90;;;;;;5019326;28;20033;-75
2023/07/16 02:30:06;;;;;;;4.72;2.67;;;18.00;99.90;;;;;;5018654;28;20029;-75
2023/07/16 02:32:33;;;;;;;5.75;2.50;;;18.00;99.90;;;;;;5018182;28;20026;-76
2023/07/16 02:34:58;;;;;;;8.93;3.05;;;18.00;99.90;;;;;;5017988;28;20026;-76
2023/07/16 02:37:24;;;;;;;6.07;2.97;;;18.00;99.90;;;;;;5019399;28;20076;-75
2023/07/16 02:39:50;;;;;;;6.53;2.75;;;18.00;99.90;;;;;;5017812;28;20025;-76
2023/07/16 02:42:15;;;;;;;7.60;2.60;;;18.00;99.90;;;;;;5019534;28;20022;-76
2023/07/16 02:44:44;;;;;;;5.97;2.85;;;17.90;99.90;;;;;;5029558;28;20060;-75
2023/07/16 02:47:13;;;;;;;11.02;2.92;;;17.90;99.90;;;;;;5019188;28;20077;-75
2023/07/16 02:49:39;;;;;;;7.30;3.17;;;17.90;99.90;;;;;;5018938;28;20441;-76
2023/07/16 02:52:06;;;;;;;8.82;3.35;;;17.90;99.90;;;;;;5025313;28;20018;-75
2023/07/16 02:54:31;;;;;;;6.72;2.53;;;17.90;99.90;;;;;;5020675;28;20022;-75
2023/07/16 02:56:58;;;;;;;10.32;2.75;;;17.90;99.90;;;;;;5019014;28;20092;-76
2023/07/16 02:59:23;;;;;;;8.93;3.47;;;17.90;99.90;;;;;;5018480;28;20018;-75
2023/07/16 03:01:49;;;;;;;6.47;2.63;;;17.90;99.90;;;;;;5018707;28;20107;-74
2023/07/16 03:04:15;;;;;;;11.35;3.17;;;17.90;99.90;;;;;;5018626;28;20029;-76
2023/07/16 03:06:41;;;;;;;7.75;2.70;;;17.90;99.90;;;;;;5018048;28;20033;-75
2023/07/16 03:09:06;;;;;;;8.18;2.90;;;17.90;99.90;;;;;;5018380;28;20022;-75
2023/07/16 03:11:32;;;;;;;4.75;2.63;;;17.90;99.90;;;;;;5018750;28;20032;-75
2023/07/16 03:13:57;;;;;;;8.98;3.22;;;17.90;99.90;;;;;;5017887;28;20446;-75
2023/07/16 03:16:23;;;;;;;7.63;2.83;;;17.90;99.90;;;;;;5018667;28;20535;-76
2023/07/16 03:18:49;;;;;;;7.80;2.63;;;17.90;99.90;;;;;;5018472;28;20026;-76
2023/07/16 03:21:14;;;;;;;6.97;2.70;;;17.90;99.90;;;;;;5018657;28;20066;-75
2023/07/16 03:23:40;;;;;;;5.82;2.80;;;17.90;99.90;;;;;;5018328;28;20033;-76
2023/07/16 03:26:06;;;;;;;4.13;2.72;;;17.90;99.90;;;;;;5018452;28;20029;-76
2023/07/16 03:28:32;;;;;;;4.32;2.40;;;17.90;99.90;;;;;;5017965;28;20030;-76
2023/07/16 03:30:57;;;;;;;7.88;2.60;;;17.90;99.90;;;;;;5018478;28;20037;-76
2023/07/16 03:33:23;;;;;;;10.95;3.30;;;17.90;99.90;;;;;;5018074;28;20120;-76
2023/07/16 03:35:49;;;;;;;8.20;3.40;;;17.90;99.90;;;;;;5018634;28;20025;-76
2023/07/16 03:38:15;;;;;;;3.65;2.38;;;17.80;99.90;;;;;;5016774;28;20018;-75
2023/07/16 03:40:46;;;;;;;7.20;3.00;;;17.80;99.90;;;;;;5016174;28;20028;-76
2023/07/16 03:43:12;;;;;;;7.70;2.97;;;17.90;99.90;;;;;;5018757;28;20022;-77
2023/07/16 03:45:38;;;;;;;4.38;2.78;;;17.90;99.90;;;;;;5027722;28;20040;-76
2023/07/16 03:48:04;;;;;;;9.23;2.95;;;17.90;99.90;;;;;;5016586;28;20045;-76
2023/07/16 03:50:29;;;;;;;6.78;2.70;;;17.80;99.90;;;;;;5017890;28;20092;-76
2023/07/16 03:52:55;;;;;;;7.75;2.83;;;17.80;99.90;;;;;;5027491;28;20407;-76
2023/07/16 03:55:21;;;;;;;10.07;2.92;;;17.80;99.90;;;;;;5017954;28;20069;-75
2023/07/16 03:57:47;;;;;;;6.63;2.47;;;17.80;99.90;;;;;;5016360;28;20022;-76
2023/07/16 04:00:13;;;;;;;6.60;3.03;;;17.80;99.90;;;;;;5017911;28;20041;-76
2023/07/16 04:02:38;;;;;;;7.47;2.85;;;17.80;99.90;;;;;;5017728;28;20014;-75
2023/07/16 04:05:04;;;;;;;5.82;2.50;;;17.80;99.90;;;;;;5017868;28;20033;-76
2023/07/16 04:07:30;;;;;;;7.50;2.67;;;17.90;99.90;;;;;;5017774;28;20018;-75
2023/07/16 04:09:56;;;;;;;5.40;2.67;;;17.80;99.90;;;;;;5017841;28;20037;-75
2023/07/16 04:12:21;;;;;;;5.55;2.75;;;17.90;99.90;;;;;;5017669;28;20052;-76
2023/07/16 04:14:47;;;;;;;6.07;2.83;;;17.90;99.90;;;;;;5015941;28;20068;-76
2023/07/16 04:17:13;;;;;;;7.25;2.70;;;17.90;99.90;;;;;;5017669;28;20030;-76
2023/07/16 04:19:38;;;;;;;7.57;3.38;;;17.90;99.90;;;;;;5018309;28;20372;-76
2023/07/16 04:22:04;;;;;;;6.22;2.85;;;17.80;99.90;;;;;;5017452;28;20124;-76
2023/07/16 04:24:30;;;;;;;11.45;2.65;;;17.90;99.90;;;;;;5016345;28;20030;-76
2023/07/16 04:26:56;;;;;;;6.07;2.88;;;17.80;99.90;;;;;;5017405;28;20088;-76
2023/07/16 04:29:22;;;;;;;9.00;2.88;;;17.80;99.90;;;;;;5017451;28;20060;-77
2023/07/16 04:31:47;;;;;;;5.50;2.70;;;17.80;99.90;;;;;;5017326;28;20018;-76
2023/07/16 04:34:13;;;;;;;7.18;3.58;;;17.80;99.90;;;;;;5017489;28;20034;-76
2023/07/16 04:36:39;;;;;;;6.97;3.10;;;17.90;99.90;;;;;;5017272;28;20029;-76
2023/07/16 04:39:05;;;;;;;9.15;3.13;;;17.90;99.90;;;;;;5017421;28;20390;-76
2023/07/16 04:41:31;;;;;;;7.82;3.13;;;17.90;99.90;;;;;;5017330;28;20026;-76
2023/07/16 04:43:56;;;;;;;8.63;2.70;;;17.90;99.90;;;;;;5022713;28;20418;-76
2023/07/16 04:46:22;;;;;;;9.05;3.65;;;17.90;99.90;;;;;;5021759;28;20030;-76
2023/07/16 04:48:48;;;;;;;6.38;2.53;;;17.90;99.90;;;;;;5017597;28;20061;-76
2023/07/16 04:51:14;;;;;;;6.78;2.40;;;17.90;99.90;;;;;;5017107;28;20033;-76
2023/07/16 04:53:39;;;;;;;4.90;2.30;;;17.90;99.90;;;;;;5028254;28;20030;-77
2023/07/16 04:56:14;;;;;;;6.75;2.38;;;18.00;99.90;;;;;;5021147;28;20499;-76
2023/07/16 04:58:39;;;;;;;10.73;4.25;;;18.00;99.90;;;;;;5019747;28;20064;-76
2023/07/16 05:01:05;;;;;;;9.70;2.75;;;18.00;99.90;;;;;;5021088;28;20433;-76
2023/07/16 05:03:31;;;;;;;7.78;3.45;;;18.00;99.90;;;;;;5021389;28;20033;-76
2023/07/16 05:05:56;;;;;;;7.30;2.50;;;18.10;99.90;;;;;;5020920;28;20092;-76
2023/07/16 05:08:22;;;;;;;8.15;2.83;;;18.10;99.90;;;;;;5019773;28;20486;-76
2023/07/16 05:10:48;;;;;;;6.43;2.60;;;18.10;99.90;;;;;;5020843;28;20098;-76
2023/07/16 05:13:15;;;;;;;8.13;2.85;;;18.10;99.90;;;;;;5020903;28;20029;-76
2023/07/16 05:15:43;;;;;;;7.20;2.92;;;18.20;99.90;;;;;;5020581;28;20057;-76
2023/07/16 05:18:08;;;;;;;8.68;2.70;;;18.20;99.90;;;;;;5020887;28;20029;-75
2023/07/16 05:20:34;;;;;;;6.03;2.47;;;18.20;99.90;;;;;;5013157;28;20478;-76
2023/07/16 05:22:59;;;;;;;8.07;2.90;;;18.20;99.90;;;;;;5017237;28;20024;-76
2023/07/16 05:25:25;;;;;;;5.28;2.22;;;18.20;99.90;;;;;;5020325;28;20029;-76
2023/07/16 05:27:51;;;;;;;8.93;2.78;;;18.30;99.90;;;;;;5018723;28;20418;-76
2023/07/16 05:30:17;;;;;;;6.55;2.28;;;18.30;99.90;;;;;;5020088;28;20036;-76
2023/07/16 05:32:42;;;;;;;8.90;3.03;;;18.30;99.90;;;;;;5020290;28;20120;-73
2023/07/16 05:35:08;;;;;;;7.00;2.85;;;18.30;99.90;;;;;;5013453;28;20087;-73
2023/07/16 05:37:34;;;;;;;9.40;2.90;;;18.40;99.90;;;;;;5018595;28;20033;-73
2023/07/16 05:39:59;;;;;;;9.00;3.28;;;18.40;99.90;;;;;;5020007;28;20088;-73
2023/07/16 05:42:25;;;;;;;10.43;3.63;;;18.50;99.90;;;;;;5019727;28;20453;-75
2023/07/16 05:44:50;;;;;;;7.70;2.90;;;18.50;99.90;;;;;;5023140;28;20089;-75
2023/07/16 05:47:16;;;;;;;8.18;2.92;;;18.60;99.90;;;;;;5018375;28;20034;-75
2023/07/16 05:49:42;;;;;;;10.68;3.20;;;18.70;99.90;;;;;;5013279;28;20434;-74
2023/07/16 05:52:08;;;;;;;7.90;2.65;;;18.70;99.90;;;;;;5023823;28;20474;-74
2023/07/16 05:54:34;;;;;;;10.23;2.80;;;18.80;99.90;;;;;;5019759;28;20029;-75
2023/07/16 05:57:00;;;;;;;6.88;2.70;;;18.90;99.90;;;;;;5018873;28;20022;-75
2023/07/16 05:59:26;;;;;;;8.80;3.17;;;18.90;99.90;;;;;;5019671;28;20032;-74
2023/07/16 06:01:51;;;;;;;9.93;2.70;;;19.00;99.90;;;;;;5018524;28;20034;-75
2023/07/16 06:04:17;;;;;;;10.25;2.72;;;19.00;99.90;;;;;;5017066;28;20052;-74
2023/07/16 06:06:43;;;;;;;9.07;3.33;;;19.00;99.90;;;;;;5016234;28;20030;-74
2023/07/16 06:09:09;;;;;;;9.80;2.40;;;19.10;99.90;;;;;;5012996;28;20029;-75
2023/07/16 06:11:34;;;;;;;9.50;2.78;;;19.20;99.90;;;;;;5015307;28;20033;-75
2023/07/16 06:14:00;;;;;;;11.43;2.80;;;19.20;99.90;;;;;;5012069;28;20120;-75
2023/07/16 06:16:26;;;;;;;11.13;2.50;;;19.30;99.90;;;;;;5014153;28;20022;-75
2023/07/16 06:18:51;;;;;;;10.18;3.17;;;19.40;99.90;;;;;;5026417;28;20022;-75
2023/07/16 06:21:17;;;;;;;9.95;3.05;;;19.40;99.90;;;;;;5012912;28;20026;-75
2023/07/16 06:23:43;;;;;;;8.90;3.10;;;19.50;99.90;;;;;;5010693;28;20039;-75
2023/07/16 06:26:09;;;;;;;7.35;2.83;;;19.50;99.90;;;;;;5012331;28;20026;-75
2023/07/16 06:28:34;;;;;;;10.60;3.47;;;19.60;99.90;;;;;;5016367;28;20121;-75
2023/07/16 06:31:00;;;;;;;7.07;2.85;;;19.50;99.90;;;;;;5019161;28;20056;-75
2023/07/16 06:33:27;;;;;;;7.85;2.60;;;19.60;99.90;;;;;;5018640;28;20029;-75
2023/07/16 06:35:52;;;;;;;6.88;2.60;;;19.70;99.90;;;;;;5019013;28;20097;-75
2023/07/16 06:38:18;;;;;;;10.15;2.65;;;19.70;99.90;;;;;;5018619;28;20080;-76
2023/07/16 06:40:49;;;;;;;6.40;2.35;;;19.80;99.90;;;;;;5017702;28;20022;-75
2023/07/16 06:43:15;;;;;;;7.57;3.13;;;19.90;99.90;;;;;;5018503;28;20486;-75
2023/07/16 06:45:40;;;;;;;5.85;2.78;;;19.90;99.90;;;;;;5020809;28;20113;-75
2023/07/16 06:48:06;;;;;;;10.00;3.75;;;20.00;99.90;;;;;;5018705;28;21349;-75
2023/07/16 06:50:32;;;;;;;6.80;2.80;;;20.20;99.90;;;;;;5018700;28;20026;-74
2023/07/16 06:52:57;;;;;;;8.30;3.00;;;20.30;99.90;;;;;;5024628;28;20022;-75
2023/07/16 06:55:23;;;;;;;9.10;2.70;;;20.30;99.90;;;;;;5018654;28;20034;-75
2023/07/16 06:57:49;;;;;;;8.40;2.88;;;20.40;99.90;;;;;;5018383;28;20021;-75
2023/07/16 07:00:15;;;;;;;9.07;2.78;;;20.50;99.90;;;;;;5018732;28;20026;-75
2023/07/16 07:02:41;;;;;;;8.07;2.88;;;20.60;99.90;;;;;;5018341;28;20041;-75
2023/07/16 07:05:07;;;;;;;10.32;3.55;;;20.80;99.90;;;;;;5018870;28;20026;-75
2023/07/16 07:07:33;;;;;;;7.53;3.05;;;21.00;99.90;;;;;;5017077;28;20068;-74
2023/07/16 07:09:59;;;;;;;8.85;3.00;;;21.10;99.90;;;;;;5017226;28;20062;-75
2023/07/16 07:12:24;;;;;;;8.88;2.67;;;21.30;99.90;;;;;;5016804;28;20026;-75
2023/07/16 07:14:50;;;;;;;12.23;2.90;;;21.50;99.90;;;;;;5018164;28;20494;-75
2023/07/16 07:17:15;;;;;;;5.95;2.67;;;21.60;99.90;;;;;;5018264;28;20022;-77
2023/07/16 07:19:43;;;;;;;7.93;2.33;;;21.70;99.90;;;;;;5018264;28;20042;-75
2023/07/16 07:22:09;;;;;;;8.50;2.20;;;21.80;99.90;;;;;;5018177;28;20028;-76
2023/07/16 07:24:34;;;;;;;8.98;2.60;;;21.90;99.90;;;;;;5016641;28;20050;-76
2023/07/16 07:27:00;;;;;;;9.85;3.20;;;21.80;99.90;;;;;;5018017;28;20060;-76
2023/07/16 07:29:25;;;;;;;13.93;3.10;;;21.70;99.90;;;;;;5017519;28;20022;-74
2023/07/16 07:31:53;;;;;;;9.68;2.65;;;21.80;99.90;;;;;;5017388;28;20109;-75
2023/07/16 07:34:19;;;;;;;9.23;2.60;;;21.70;99.90;;;;;;5019881;28;20017;-74
2023/07/16 07:36:44;;;;;;;11.88;2.80;;;21.70;99.90;;;;;;5020278;28;20053;-75
2023/07/16 07:39:10;;;;;;;10.73;2.80;;;21.70;99.90;;;;;;5016343;28;20025;-75
2023/07/16 07:41:36;;;;;;;7.57;2.72;;;21.60;99.90;;;;;;5017771;28;20033;-74
2023/07/16 07:44:02;;;;;;;9.88;2.83;;;21.60;99.90;;;;;;5022114;28;20108;-75
2023/07/16 07:46:27;;;;;;;7.50;2.63;;;21.60;99.90;;;;;;5017424;28;20029;-74
2023/07/16 07:48:54;;;;;;;8.13;2.38;;;21.50;99.90;;;;;;5017507;28;20037;-74
2023/07/16 07:51:20;;;;;;;12.32;2.40;;;21.50;99.90;;;;;;5017505;28;20040;-74
2023/07/16 07:53:46;;;;;;;11.52;3.00;;;21.80;99.90;;;;;;5021374;28;20030;-74
2023/07/16 07:56:11;;;;;;;13.68;2.70;;;21.90;99.90;;;;;;5017258;28;20022;-75
2023/07/16 07:58:37;;;;;;;7.97;2.60;;;22.10;99.90;;;;;;5015932;28;20129;-76
2023/07/16 08:01:09;;;;;;;11.23;2.53;;;22.30;99.90;;;;;;5013763;28;20453;-76
2023/07/16 08:03:35;;;;;;;5.18;2.38;;;22.30;99.90;;;;;;5017684;28;20021;-76
2023/07/16 08:06:01;;;;;;;6.68;1.88;;;22.40;99.90;;;;;;5017372;28;20018;-76
2023/07/16 08:08:27;;;;;;;8.30;2.75;;;22.50;99.90;;;;;;5013394;28;20049;-74
2023/07/16 08:10:54;;;;;;;6.78;2.60;;;22.60;99.90;;;;;;5012525;28;20363;-73
2023/07/16 08:13:19;;;;;;;10.68;2.97;;;22.70;99.90;;;;;;5017880;28;20032;-76
2023/07/16 08:15:45;;;;;;;9.95;2.88;;;22.70;99.90;;;;;;5019255;28;20105;-75
2023/07/16 08:18:11;;;;;;;9.80;2.55;;;22.90;99.90;;;;;;5019760;28;20052;-75
2023/07/16 08:20:37;;;;;;;12.77;2.55;;;23.10;99.90;;;;;;5015899;28;20037;-77
2023/07/16 08:23:02;;;;;;;8.63;2.50;;;23.20;99.90;;;;;;5017070;28;20029;-77
2023/07/16 08:25:28;;;;;;;7.65;2.50;;;23.30;99.90;;;;;;5015165;28;20034;-76
2023/07/16 08:27:54;;;;;;;11.27;2.45;;;23.40;99.90;;;;;;5030144;28;20028;-74
2023/07/16 08:30:20;;;;;;;6.88;2.58;;;23.50;99.90;;;;;;5016858;28;20034;-75
2023/07/16 08:32:45;;;;;;;9.68;3.42;;;23.40;99.90;;;;;;5024897;28;20018;-74
2023/07/16 08:35:16;;;;;;;7.70;2.35;;;23.20;99.90;;;;;;5013035;28;20063;-74
2023/07/16 08:37:46;;;;;;;9.63;2.30;;;23.10;99.90;;;;;;5008820;28;20377;-75
2023/07/16 08:40:12;;;;;;;11.02;3.00;;;23.00;99.90;;;;;;5016933;28;20021;-75
2023/07/16 08:42:39;;;;;;;8.20;2.88;;;22.70;99.90;;;;;;5016954;28;20088;-75
2023/07/16 08:45:07;;;;;;;9.88;2.45;;;22.60;99.90;;;;;;5023060;28;20050;-74
2023/07/16 08:47:34;;;;;;;11.70;3.25;;;22.80;99.90;;;;;;4998176;28;20029;-75
2023/07/16 08:50:01;;;;;;;7.72;2.53;;;23.00;99.90;;;;;;5003795;28;20030;-75
2023/07/16 08:52:28;;;;;;;5.60;2.22;;;23.20;99.90;;;;;;5016660;28;20035;-75
2023/07/16 08:54:54;;;;;;;7.22;2.40;;;22.80;99.90;;;;;;4997861;28;20022;-74
2023/07/16 08:57:21;;;;;;;8.50;2.13;;;22.80;99.90;;;;;;4997848;28;20022;-74
2023/07/16 08:59:50;;;;;;;5.88;2.30;;;23.00;99.90;;;;;;4997988;28;20065;-76
2023/07/16 09:02:18;;;;;;;5.85;2.20;;;23.20;99.90;;;;;;4996002;28;20026;-74
2023/07/16 09:04:45;;;;;;;7.30;3.10;;;23.40;99.90;;;;;;4997448;28;20030;-74
2023/07/16 09:07:11;;;;;;;9.40;2.42;;;23.40;99.90;;;;;;4998141;28;20026;-75
2023/07/16 09:09:37;;;;;;;8.90;2.58;;;23.20;99.90;;;;;;5016602;28;20038;-76
2023/07/16 09:12:02;;;;;;;11.07;2.83;;;23.10;99.90;;;;;;5014190;28;20059;-76
2023/07/16 09:14:28;;;;;;;9.13;2.15;;;23.10;99.90;;;;;;5015126;28;20403;-77
2023/07/16 09:16:54;;;;;;;7.80;2.60;;;23.40;99.90;;;;;;5013431;28;20029;-76
2023/07/16 09:19:20;;;;;;;9.50;2.47;;;23.70;99.90;;;;;;5015075;28;20030;-76
2023/07/16 09:21:50;;;;;;;6.63;2.00;;;23.90;99.90;;;;;;5014919;28;20832;-76
2023/07/16 09:24:16;;;;;;;8.50;2.50;;;23.90;99.90;;;;;;5015798;28;20034;-77
2023/07/16 09:26:52;;;;;;;11.57;2.13;;;23.60;99.90;;;;;;5008235;28;20103;-77
2023/07/16 09:29:18;;;;;;;4.55;2.05;;;23.80;99.90;;;;;;5002763;28;20053;-77
2023/07/16 09:32:00;;;;;;;11.65;1.95;;;24.00;99.90;;;;;;5011660;28;20018;-78
2023/07/16 09:34:29;;;;;;;8.90;2.60;;;24.10;99.90;;;;;;5016556;28;20040;-77
2023/07/16 09:36:56;;;;;;;8.13;2.47;;;24.20;99.90;;;;;;5016571;28;20018;-77
2023/07/16 09:39:22;;;;;;;8.45;2.38;;;24.30;99.90;;;;;;5017350;28;20069;-77
2023/07/16 09:41:49;;;;;;;9.88;2.60;;;24.20;99.90;;;;;;5017800;28;20030;-78
2023/07/16 09:44:16;;;;;;;9.38;2.28;;;24.10;99.90;;;;;;5004645;28;20054;-79
2023/07/16 09:46:42;;;;;;;6.40;2.25;;;24.10;99.90;;;;;;5006590;28;20088;-79
2023/07/16 09:49:08;;;;;;;6.75;2.20;;;24.20;99.90;;;;;;5013254;28;20037;-78
2023/07/16 09:51:38;;;;;;;12.10;4.35;;;24.30;99.90;;;;;;5020223;28;20160;-79
2023/07/16 09:54:04;;;;;;;7.80;2.47;;;24.20;99.90;;;;;;5020780;28;20448;-79
2023/07/16 09:56:54;;;;;;;6.55;1.75;;;24.40;99.90;;;;;;5002906;28;20015;-76
2023/07/16 09:59:27;;;;;;;7.82;2.05;;;24.60;99.90;;;;;;5000729;28;20081;-78
2023/07/16 10:01:53;;;;;;;5.72;2.50;;;24.70;99.90;;;;;;5001175;28;20023;-80
2023/07/16 10:04:19;;;;;;;10.10;2.92;;;24.90;99.90;;;;;;5004832;28;20022;-78
2023/07/16 10:06:57;;;;;;;8.10;2.15;;;25.00;99.90;;;;;;5018286;28;20571;-78
2023/07/16 10:09:34;;;;;;;7.32;1.88;;;25.00;99.90;;;;;;5018155;28;20033;-77
2023/07/16 10:12:18;;;;;;;6.28;2.00;;;25.00;99.90;;;;;;5012971;28;20397;-77
2023/07/16 10:14:58;;;;;;;6.95;2.35;;;24.90;99.90;;;;;;5017909;28;20044;-79
2023/07/16 10:17:25;;;;;;;5.57;1.95;;;24.60;99.90;;;;;;5019265;28;20026;-77
2023/07/16 10:20:21;;;;;;;9.15;2.50;;;24.50;99.90;;;;;;5014412;28;20038;-79
2023/07/16 10:22:47;;;;;;;6.85;2.30;;;24.40;99.90;;;;;;5009425;28;20080;-78
2023/07/16 10:25:18;;;;;;;5.70;1.63;;;24.60;99.90;;;;;;5017306;28;20788;-78
2023/07/16 10:27:48;;;;;;;8.13;2.00;;;24.60;99.90;;;;;;5019048;28;20056;-77
2023/07/16 10:30:15;;;;;;;6.25;1.98;;;24.90;99.90;;;;;;5017484;28;20612;-77
2023/07/16 10:32:41;;;;;;;6.22;1.90;;;25.10;99.90;;;;;;5051344;28;20036;-79
2023/07/16 10:35:08;;;;;;;8.70;1.58;;;25.20;99.90;;;;;;5019520;28;20096;-78
2023/07/16 10:37:35;;;;;;;7.97;2.00;;;25.30;99.90;;;;;;5017797;28;20026;-77
2023/07/16 10:40:04;;;;;;;4.60;1.85;;;25.30;98.50;;;;;;5018992;28;20551;-77
2023/07/16 10:42:31;;;;;;;8.32;2.15;;;25.20;99.30;;;;;;5018727;28;20508;-77
2023/07/16 10:45:04;;;;;;;7.53;2.00;;;25.20;99.40;;;;;;5012800;28;20468;-78
2023/07/16 10:47:35;;;;;;;4.10;2.50;;;25.10;97.40;;;;;;5012308;28;20161;-76
2023/07/16 10:50:04;;;;;;;5.82;1.77;;;25.00;97.20;;;;;;5016808;28;20034;-77
2023/07/16 10:52:30;;;;;;;4.78;1.65;;;24.90;99.90;;;;;;5020352;28;20398;-75
2023/07/16 10:54:57;;;;;;;3.85;1.90;;;25.20;99.90;;;;;;5018557;28;20029;-78
2023/07/16 10:57:24;;;;;;;7.88;1.85;;;25.20;98.70;;;;;;5017124;28;20017;-77
2023/07/16 10:59:58;;;;;;;4.90;1.88;;;25.40;97.90;;;;;;5012578;28;20023;-80
2023/07/16 11:02:25;;;;;;;6.43;2.25;;;25.60;96.90;;;;;;5002903;28;20031;-79
2023/07/16 11:04:54;;;;;;;3.80;1.70;;;25.40;93.50;;;;;;5008324;28;20080;-80
2023/07/16 11:07:21;;;;;;;6.07;2.13;;;25.30;95.70;;;;;;5018582;28;20033;-79
2023/07/16 11:09:48;;;;;;;3.67;1.98;;;25.50;95.40;;;;;;5002256;28;20026;-80
2023/07/16 11:12:16;;;;;;;3.80;1.45;;;25.40;94.60;;;;;;5003684;28;20034;-81
2023/07/16 11:14:45;;;;;;;3.97;2.30;;;25.60;95.40;;;;;;5001216;28;20057;-78
2023/07/16 11:17:11;;;;;;;4.55;1.73;;;25.80;95.10;;;;;;5004665;28;20390;-80
2023/07/16 11:19:38;;;;;;;5.85;2.15;;;25.80;92.60;;;;;;5018394;28;20107;-78
2023/07/16 11:22:05;;;;;;;4.55;1.80;;;25.90;94.20;;;;;;5018512;28;20103;-77
2023/07/16 11:24:46;;;;;;;5.55;2.03;;;25.90;95.70;;;;;;5017249;28;20080;-78
2023/07/16 11:27:27;;;;;;;5.07;2.13;;;25.90;93.50;;;;;;5015340;28;20034;-79
2023/07/16 11:29:57;;;;;;;6.22;2.03;;;26.10;94.70;;;;;;5015632;28;20033;-80
2023/07/16 11:32:29;;;;;;;6.67;2.00;;;25.90;91.60;;;;;;5017157;28;20453;-79
2023/07/16 11:34:56;;;;;;;6.35;2.03;;;25.70;92.20;;;;;;5015619;28;20076;-79
2023/07/16 11:37:24;;;;;;;5.10;1.92;;;25.80;93.60;;;;;;5016812;28;20433;-79
2023/07/16 11:39:50;;;;;;;3.88;2.00;;;25.90;93.20;;;;;;5016364;28;20036;-80
2023/07/16 11:42:23;;;;;;;5.90;2.10;;;26.10;93.10;;;;;;5009605;28;20025;-81
2023/07/16 11:44:49;;;;;;;5.88;1.80;;;26.30;92.00;;;;;;5019949;28;20042;-79
2023/07/16 11:47:15;;;;;;;4.25;1.42;;;26.40;92.60;;;;;;5017674;28;20026;-78
2023/07/16 11:49:41;;;;;;;5.80;1.77;;;26.30;92.20;;;;;;5016468;28;20518;-79
2023/07/16 11:52:07;;;;;;;4.80;1.92;;;26.20;92.20;;;;;;5016885;28;20101;-79
2023/07/16 11:54:33;;;;;;;6.70;2.33;;;26.40;92.80;;;;;;5016232;28;20033;-78
2023/07/16 11:56:58;;;;;;;5.25;1.90;;;26.50;91.40;;;;;;5017021;28;20375;-79
2023/07/16 11:59:24;;;;;;;4.25;1.63;;;26.50;90.40;;;;;;5017576;28;20022;-78
2023/07/16 12:01:50;;;;;;;4.32;1.77;;;26.50;90.30;;;;;;5005986;28;20014;-79
2023/07/16 12:04:17;;;;;;;8.73;2.03;;;26.30;90.10;;;;;;5014323;28;20033;-79
2023/07/16 12:06:43;;;;;;;4.15;1.40;;;26.10;91.40;;;;;;5004340;28;20030;-79
2023/07/16 12:09:08;;;;;;;5.05;1.83;;;25.90;91.50;;;;;;5016277;28;20556;-79
2023/07/16 12:11:34;;;;;;;4.30;1.80;;;26.20;91.70;;;;;;5000929;28;20080;-80
2023/07/16 12:14:00;;;;;;;3.10;1.73;;;26.30;92.20;;;;;;5000442;28;20425;-77
2023/07/16 12:16:25;;;;;;;5.63;1.70;;;26.60;91.90;;;;;;5003061;28;20037;-79
2023/07/16 12:18:51;;;;;;;4.55;1.83;;;26.90;92.00;;;;;;5011525;28;20021;-79
2023/07/16 12:21:16;;;;;;;4.82;1.70;;;27.20;93.40;;;;;;5004495;28;20022;-81
2023/07/16 12:23:42;;;;;;;4.35;1.70;;;27.10;91.90;;;;;;5008338;28;20028;-80
2023/07/16 12:26:08;;;;;;;2.95;1.45;;;27.10;91.70;;;;;;5005708;28;20076;-80
2023/07/16 12:28:34;;;;;;;5.60;1.67;;;27.00;89.90;;;;;;5007745;28;20026;-79
2023/07/16 12:31:00;;;;;;;6.78;1.80;;;27.00;89.30;;;;;;5005321;28;20025;-80
2023/07/16 12:33:25;;;;;;;3.35;1.60;;;26.70;88.70;;;;;;5006413;28;20022;-79
2023/07/16 12:35:51;;;;;;;6.88;1.90;;;26.90;93.70;;;;;;5010380;28;20022;-79
2023/07/16 12:38:17;;;;;;;6.07;1.77;;;27.00;90.80;;;;;;5001885;28;20038;-79
2023/07/16 12:40:43;;;;;;;3.60;1.58;;;27.20;92.10;;;;;;5004267;28;20026;-79
2023/07/16 12:43:08;;;;;;;5.78;1.80;;;27.40;91.80;;;;;;5015920;28;20032;-79
2023/07/16 12:45:34;;;;;;;4.40;1.50;;;27.40;90.90;;;;;;5008102;28;20117;-80